Bloomfield, Connecticut
Current Conditions -  °F | °C
As of 11:51 AM on Thursday 27 Nov 2014 (Local Time) from KBDL Reporting Station
Broken Clouds Broken Clouds  
Wind Chill: 32°   Ceiling: 3500
Heat Index: 37°   Visibility: 10mi
Dew Point: 28°   Wind: 7mph
Humidity: 70%   Direction: 320°NW
Pressure: 29.96"   Gusts: NA
Location:  41.83°N, 72.73°W
Report Text: KBDL 271651Z 32006KT 10SM BKN035 BKN085 BKN200 03/M02 A2996 RMK AO2 SLP146 T00281022
Loading
Personal Weather Stations






























Interactive Weather Map New forecast layout! Learn more

10-Day Weather Forecast

Advertisements
Track Severe Weather on mobile